Time;durP1;ratioP1;P1;durP2;ratioP2;P2;SDS_P1;SDS_P2;PMS_P1;PMS_P2;Temp;Humidity;BMP_temperature;BMP_pressure;BME280_temperature;BME280_humidity;BME280_pressure;Samples;Min_cycle;Max_cycle;Signal;HPM_P1;HPM_P2
2021/11/09 00:00:33;;;;;;;3.15;2.90;;;11.70;88.70;;;;;;5043257;28;20206;-73
2021/11/09 00:03:00;;;;;;;3.35;2.83;;;11.70;88.20;;;;;;5046107;28;20728;-73
2021/11/09 00:05:29;;;;;;;6.63;2.38;;;11.80;88.30;;;;;;5045891;28;20191;-73
2021/11/09 00:08:07;;;;;;;3.17;2.97;;;11.80;88.20;;;;;;5044521;28;20287;-74
2021/11/09 00:10:33;;;;;;;3.30;3.08;;;11.90;88.20;;;;;;5045579;28;20190;-74
2021/11/09 00:13:02;;;;;;;2.95;2.78;;;11.90;88.20;;;;;;5046602;28;20661;-73
2021/11/09 00:15:29;;;;;;;2.42;2.30;;;11.90;88.00;;;;;;5043930;28;20184;-74
2021/11/09 00:17:57;;;;;;;4.00;3.20;;;12.00;88.00;;;;;;5044247;28;20269;-74
2021/11/09 00:20:25;;;;;;;2.80;2.60;;;12.00;88.10;;;;;;5046168;28;20741;-73
2021/11/09 00:22:52;;;;;;;5.22;2.78;;;12.00;88.00;;;;;;5047544;28;20187;-74
2021/11/09 00:25:19;;;;;;;2.83;2.65;;;12.00;88.00;;;;;;5045928;28;20217;-74
2021/11/09 00:27:45;;;;;;;3.45;2.97;;;12.00;88.10;;;;;;5044003;28;20183;-73
2021/11/09 00:30:13;;;;;;;2.83;2.63;;;12.10;88.10;;;;;;5045522;28;20291;-74
2021/11/09 00:32:43;;;;;;;4.53;3.15;;;12.10;88.00;;;;;;5043328;28;20190;-74
2021/11/09 00:35:10;;;;;;;3.95;2.97;;;12.10;88.10;;;;;;5044077;28;20221;-74
2021/11/09 00:37:36;;;;;;;2.60;2.40;;;12.10;88.10;;;;;;5044283;28;20697;-74
2021/11/09 00:40:04;;;;;;;4.50;3.20;;;12.00;88.50;;;;;;5043941;28;20290;-74
2021/11/09 00:42:30;;;;;;;3.13;2.28;;;12.00;88.40;;;;;;5046405;28;20191;-73
2021/11/09 00:44:56;;;;;;;3.53;2.75;;;12.00;88.40;;;;;;5046306;28;20179;-73
2021/11/09 00:47:22;;;;;;;2.45;2.25;;;12.00;88.40;;;;;;5043901;28;20183;-74
2021/11/09 00:49:48;;;;;;;2.92;2.72;;;12.00;88.30;;;;;;5043449;28;20183;-73
2021/11/09 00:52:14;;;;;;;2.95;2.65;;;12.00;88.40;;;;;;5044409;28;20251;-73
2021/11/09 00:54:41;;;;;;;2.33;2.22;;;11.90;88.40;;;;;;5044352;28;20184;-73
2021/11/09 00:57:07;;;;;;;5.68;3.08;;;11.90;88.30;;;;;;5044602;28;20176;-73
2021/11/09 00:59:32;;;;;;;3.80;3.08;;;11.90;88.40;;;;;;5045759;28;20238;-73
2021/11/09 01:01:58;;;;;;;3.33;3.10;;;11.90;88.50;;;;;;5045358;28;20214;-73
2021/11/09 01:04:25;;;;;;;2.95;2.80;;;11.90;88.40;;;;;;5045082;28;20191;-73
2021/11/09 01:06:51;;;;;;;3.42;3.15;;;11.80;88.50;;;;;;5044268;28;20245;-72
2021/11/09 01:09:17;;;;;;;3.10;2.90;;;11.80;88.80;;;;;;5046469;28;20211;-74
2021/11/09 01:11:43;;;;;;;3.70;3.22;;;11.70;88.50;;;;;;5043951;28;20222;-75
2021/11/09 01:14:10;;;;;;;2.72;2.60;;;11.70;88.70;;;;;;5046684;28;20249;-75
2021/11/09 01:16:36;;;;;;;6.50;3.42;;;11.60;88.50;;;;;;5043226;28;20192;-74
2021/11/09 01:19:05;;;;;;;4.30;3.40;;;11.50;89.00;;;;;;5044663;28;20219;-73
2021/11/09 01:21:32;;;;;;;3.28;2.92;;;11.40;89.00;;;;;;5040989;28;20250;-73
2021/11/09 01:23:58;;;;;;;3.80;2.85;;;11.30;89.20;;;;;;5043878;28;20187;-73
2021/11/09 01:26:24;;;;;;;3.20;2.90;;;11.30;89.30;;;;;;5044843;28;20175;-73
2021/11/09 01:28:55;;;;;;;3.97;3.60;;;11.20;89.40;;;;;;5044941;28;20191;-73
2021/11/09 01:31:21;;;;;;;3.75;2.92;;;11.10;89.60;;;;;;5046822;28;20256;-72
2021/11/09 01:33:48;;;;;;;4.22;3.33;;;11.00;90.00;;;;;;5044219;28;20714;-72
2021/11/09 01:36:14;;;;;;;3.15;2.92;;;10.90;90.00;;;;;;5046470;28;20191;-74
2021/11/09 01:38:40;;;;;;;3.55;3.33;;;10.90;90.60;;;;;;5047616;28;20245;-73
2021/11/09 01:41:08;;;;;;;3.00;2.90;;;10.80;90.90;;;;;;5049255;28;20180;-72
2021/11/09 01:43:36;;;;;;;4.70;3.22;;;10.70;91.30;;;;;;5046762;28;20188;-72
2021/11/09 01:46:02;;;;;;;3.42;3.13;;;10.60;91.70;;;;;;5047533;28;20202;-74
2021/11/09 01:48:28;;;;;;;2.97;2.78;;;10.50;91.90;;;;;;5046564;28;20191;-74
2021/11/09 01:50:59;;;;;;;3.95;3.55;;;10.50;91.80;;;;;;5049178;28;20735;-73
2021/11/09 01:53:27;;;;;;;3.40;3.17;;;10.50;92.30;;;;;;5049735;28;20204;-73
2021/11/09 01:55:53;;;;;;;3.70;3.35;;;10.50;92.50;;;;;;5047565;28;20188;-73
2021/11/09 01:58:19;;;;;;;4.10;3.40;;;10.50;92.60;;;;;;5048867;28;20211;-73
2021/11/09 02:00:53;;;;;;;3.55;3.17;;;10.50;92.50;;;;;;5049195;28;20282;-75
2021/11/09 02:03:19;;;;;;;3.42;3.03;;;10.50;92.30;;;;;;5050323;28;20266;-73
2021/11/09 02:05:45;;;;;;;5.30;3.78;;;10.50;92.60;;;;;;5047305;28;20278;-73
2021/11/09 02:08:11;;;;;;;3.80;3.50;;;10.50;92.70;;;;;;5046667;28;20184;-73
2021/11/09 02:10:41;;;;;;;6.20;3.20;;;10.50;92.70;;;;;;5049021;28;20700;-73
2021/11/09 02:13:07;;;;;;;3.17;2.90;;;10.40;92.80;;;;;;5048338;28;20265;-73
2021/11/09 02:15:36;;;;;;;3.00;2.80;;;10.50;92.70;;;;;;5046866;28;20239;-73
2021/11/09 02:18:04;;;;;;;4.22;3.65;;;10.50;92.40;;;;;;5044673;28;20219;-73
2021/11/09 02:20:30;;;;;;;2.77;2.57;;;10.60;92.10;;;;;;5045678;28;20237;-74
2021/11/09 02:22:57;;;;;;;3.20;2.90;;;10.60;92.10;;;;;;5048718;28;20635;-74
2021/11/09 02:25:25;;;;;;;3.20;2.95;;;10.60;92.10;;;;;;5047092;28;20207;-74
2021/11/09 02:27:52;;;;;;;5.07;3.15;;;10.60;91.80;;;;;;5049288;28;20195;-74
2021/11/09 02:30:25;;;;;;;3.70;3.22;;;10.60;91.70;;;;;;5047943;28;20188;-74
2021/11/09 02:32:53;;;;;;;3.67;3.38;;;10.60;91.60;;;;;;5047073;28;20265;-74
2021/11/09 02:35:22;;;;;;;3.03;2.72;;;10.50;91.80;;;;;;5046929;28;20199;-74
2021/11/09 02:37:49;;;;;;;3.53;3.22;;;10.50;91.70;;;;;;5047776;28;20204;-74
2021/11/09 02:40:14;;;;;;;2.80;2.60;;;10.40;92.20;;;;;;5044993;28;20182;-74
2021/11/09 02:42:46;;;;;;;2.47;2.30;;;10.40;92.50;;;;;;5048244;28;20665;-74
2021/11/09 02:45:17;;;;;;;3.33;3.13;;;10.30;92.30;;;;;;5045990;28;20242;-74
2021/11/09 02:47:50;;;;;;;2.50;2.30;;;10.30;92.50;;;;;;5046929;28;20196;-75
2021/11/09 02:50:19;;;;;;;4.37;3.00;;;10.20;92.60;;;;;;5045564;28;20211;-74
2021/11/09 02:53:09;;;;;;;3.40;3.10;;;10.20;92.80;;;;;;5046976;28;20183;-74
2021/11/09 02:55:34;;;;;;;3.57;3.37;;;10.10;93.60;;;;;;5046967;28;20230;-73
2021/11/09 03:00:30;;;;;;;2.73;2.53;;;10.10;93.60;;;;;;5047887;28;20192;-74
2021/11/09 03:03:03;;;;;;;3.10;2.90;;;10.10;93.30;;;;;;5047977;28;20187;-74
2021/11/09 03:08:16;;;;;;;3.30;3.03;;;10.10;93.10;;;;;;5049439;28;20590;-73
2021/11/09 03:10:47;;;;;;;3.23;2.93;;;10.10;93.20;;;;;;5045029;28;20202;-74
2021/11/09 03:13:13;;;;;;;3.53;3.25;;;10.20;93.20;;;;;;5044511;28;20214;-74
2021/11/09 03:15:38;;;;;;;2.57;2.47;;;10.20;93.00;;;;;;5048877;28;20959;-74
2021/11/09 03:18:11;;;;;;;4.93;2.97;;;10.10;93.10;;;;;;5044424;28;20220;-73
2021/11/09 03:20:55;;;;;;;2.90;2.67;;;10.10;93.40;;;;;;5047762;28;20184;-74
2021/11/09 03:45:22;;;;;;;4.00;3.20;;;9.80;93.20;;;;;;5045590;28;20196;-75
2021/11/09 03:47:53;;;;;;;2.63;2.50;;;9.90;93.00;;;;;;5044732;28;20244;-73
2021/11/09 03:50:20;;;;;;;4.17;2.57;;;9.90;92.90;;;;;;5044398;28;20195;-74
2021/11/09 03:52:52;;;;;;;2.87;2.67;;;9.90;92.80;;;;;;5045050;28;20245;-74
2021/11/09 03:58:23;;;;;;;2.15;2.03;;;9.80;92.70;;;;;;5027183;28;20231;-74
2021/11/09 04:01:30;;;;;;;3.17;2.78;;;9.80;92.70;;;;;;5030581;28;20188;-74
2021/11/09 04:11:47;;;;;;;2.25;2.15;;;9.80;92.70;;;;;;4972671;28;20723;-74
2021/11/09 04:19:42;;;;;;;1.90;1.80;;;9.70;92.50;;;;;;4968082;28;20222;-74
2021/11/09 05:11:55;;;;;;;2.50;2.30;;;9.60;93.60;;;;;;4957272;28;20205;-75
2021/11/09 05:14:22;;;;;;;2.80;2.60;;;9.60;93.70;;;;;;4955850;28;20191;-74
2021/11/09 05:16:47;;;;;;;3.60;2.47;;;9.60;93.50;;;;;;4953452;28;20206;-74
2021/11/09 05:19:13;;;;;;;2.83;2.63;;;9.70;93.50;;;;;;4955489;28;20684;-73
2021/11/09 05:21:40;;;;;;;3.43;3.20;;;9.70;93.40;;;;;;4960352;28;20964;-74
2021/11/09 05:24:07;;;;;;;3.87;3.40;;;9.70;93.70;;;;;;4962811;28;20243;-73
2021/11/09 05:26:33;;;;;;;2.63;2.42;;;9.70;93.70;;;;;;4958647;28;20198;-73
2021/11/09 05:28:59;;;;;;;3.77;2.80;;;9.70;93.60;;;;;;4954574;28;20314;-72
2021/11/09 05:31:25;;;;;;;3.30;2.70;;;9.70;93.60;;;;;;4957888;28;20216;-72
2021/11/09 05:33:54;;;;;;;4.20;2.60;;;9.70;93.70;;;;;;4959043;28;20191;-74
2021/11/09 05:36:21;;;;;;;4.00;3.13;;;9.70;93.50;;;;;;4983188;28;20304;-74
2021/11/09 05:38:55;;;;;;;3.93;3.50;;;9.70;93.50;;;;;;4984829;28;20227;-73
2021/11/09 05:41:22;;;;;;;2.47;2.38;;;9.80;93.50;;;;;;4984831;28;20213;-73
2021/11/09 05:43:48;;;;;;;4.47;3.33;;;9.70;93.60;;;;;;4983293;28;20213;-72
2021/11/09 05:46:14;;;;;;;3.93;3.63;;;9.60;93.70;;;;;;5000136;28;20583;-72
2021/11/09 05:48:40;;;;;;;3.47;3.17;;;9.50;94.10;;;;;;5016803;28;20210;-74
2021/11/09 05:51:07;;;;;;;3.37;3.07;;;9.50;94.10;;;;;;5044263;28;20659;-74
2021/11/09 05:53:35;;;;;;;3.60;3.23;;;9.60;94.20;;;;;;5043892;28;20172;-73
2021/11/09 05:56:01;;;;;;;3.55;3.33;;;9.60;94.20;;;;;;5040983;28;20187;-74
2021/11/09 05:58:27;;;;;;;3.70;3.33;;;9.60;94.20;;;;;;5042868;28;20207;-75
2021/11/09 06:00:53;;;;;;;3.83;3.37;;;9.70;93.90;;;;;;5044616;28;20176;-74
2021/11/09 06:03:22;;;;;;;4.00;3.70;;;9.70;93.80;;;;;;5044611;28;20570;-75
2021/11/09 06:05:53;;;;;;;3.97;3.57;;;9.70;93.70;;;;;;5041695;28;20192;-74
2021/11/09 06:08:19;;;;;;;4.83;3.97;;;9.70;93.80;;;;;;5042134;28;20187;-77
2021/11/09 06:10:45;;;;;;;4.73;4.00;;;9.80;93.80;;;;;;5042457;28;20881;-78
2021/11/09 06:13:13;;;;;;;7.37;3.57;;;9.80;93.70;;;;;;5046428;28;20183;-78
2021/11/09 06:15:39;;;;;;;4.37;3.40;;;9.70;93.80;;;;;;5041915;28;20230;-78
2021/11/09 06:18:05;;;;;;;5.70;3.43;;;9.60;94.20;;;;;;5043396;28;20207;-77
2021/11/09 06:20:30;;;;;;;5.40;4.13;;;9.60;94.40;;;;;;5043386;28;20286;-77
2021/11/09 06:22:56;;;;;;;4.50;3.97;;;9.50;94.50;;;;;;5043023;28;20267;-77
2021/11/09 06:25:23;;;;;;;4.10;3.70;;;9.50;94.50;;;;;;5047105;28;20175;-77
2021/11/09 06:27:50;;;;;;;4.77;4.37;;;9.50;94.60;;;;;;5046799;28;20192;-77
2021/11/09 06:30:16;;;;;;;6.43;4.17;;;9.60;94.50;;;;;;5048318;28;20183;-77
2021/11/09 06:32:42;;;;;;;3.60;3.30;;;9.60;94.40;;;;;;5048215;28;20199;-77
2021/11/09 06:35:08;;;;;;;4.10;3.73;;;9.70;94.50;;;;;;5048593;28;20655;-77
2021/11/09 06:37:34;;;;;;;3.47;3.23;;;9.70;94.10;;;;;;5049316;28;20183;-77
2021/11/09 06:40:01;;;;;;;5.47;4.30;;;9.80;94.20;;;;;;5047819;28;20257;-79
2021/11/09 06:42:27;;;;;;;4.23;3.83;;;9.80;93.90;;;;;;5043739;28;20215;-79
2021/11/09 06:44:52;;;;;;;10.10;4.93;;;9.90;93.90;;;;;;5047850;28;20211;-80
2021/11/09 06:47:18;;;;;;;6.77;4.57;;;9.90;93.60;;;;;;5046553;28;20628;-79
2021/11/09 06:49:44;;;;;;;4.57;3.70;;;10.00;93.30;;;;;;5046736;28;20183;-78
2021/11/09 06:52:10;;;;;;;3.93;3.63;;;10.10;93.10;;;;;;5045924;28;20188;-75
2021/11/09 06:54:36;;;;;;;4.80;4.45;;;10.20;92.90;;;;;;5044952;28;20230;-75
2021/11/09 06:57:03;;;;;;;6.63;4.55;;;10.30;92.80;;;;;;5044707;28;20188;-75
2021/11/09 06:59:29;;;;;;;4.70;3.87;;;10.40;92.30;;;;;;5045482;28;20212;-72
2021/11/09 07:01:55;;;;;;;5.03;3.72;;;10.40;92.00;;;;;;5044249;28;20213;-74
2021/11/09 07:04:21;;;;;;;4.82;3.58;;;10.50;91.70;;;;;;5045967;28;20180;-73
2021/11/09 07:06:46;;;;;;;3.83;2.95;;;10.60;91.70;;;;;;5045110;28;20747;-73
2021/11/09 07:09:13;;;;;;;6.03;3.70;;;10.70;91.40;;;;;;5044940;28;20266;-74
2021/11/09 07:11:39;;;;;;;8.93;3.65;;;10.80;91.30;;;;;;5048123;28;20202;-76
2021/11/09 07:14:06;;;;;;;2.45;2.35;;;10.80;91.10;;;;;;5043598;28;20176;-75
2021/11/09 07:16:31;;;;;;;4.65;4.15;;;10.70;90.80;;;;;;5047759;28;20591;-77
2021/11/09 07:19:02;;;;;;;5.40;3.05;;;10.70;90.80;;;;;;5044131;28;20222;-77
2021/11/09 07:21:28;;;;;;;3.50;3.20;;;10.70;90.80;;;;;;5046429;28;20296;-77
2021/11/09 07:23:54;;;;;;;3.92;2.47;;;10.70;90.60;;;;;;5046547;28;20176;-77
2021/11/09 07:26:20;;;;;;;3.13;2.40;;;10.70;90.80;;;;;;5047205;28;20510;-76
2021/11/09 07:28:46;;;;;;;3.25;2.95;;;10.70;90.80;;;;;;5048101;28;20195;-77
2021/11/09 07:31:15;;;;;;;3.00;2.88;;;10.70;90.70;;;;;;5047491;28;20186;-76
2021/11/09 07:33:41;;;;;;;3.28;2.97;;;10.70;90.70;;;;;;5046260;28;20179;-76
2021/11/09 07:36:07;;;;;;;2.67;2.53;;;10.70;90.60;;;;;;5045037;28;20590;-77
2021/11/09 07:38:33;;;;;;;2.97;2.47;;;10.70;90.60;;;;;;5044662;28;20253;-77
2021/11/09 07:40:59;;;;;;;4.30;3.30;;;10.70;90.50;;;;;;5045618;28;20649;-77
2021/11/09 07:43:25;;;;;;;2.90;2.65;;;10.80;90.20;;;;;;5046981;28;20208;-77
2021/11/09 07:45:51;;;;;;;3.50;3.15;;;10.80;90.20;;;;;;5046104;28;20318;-77
2021/11/09 07:48:17;;;;;;;2.85;2.58;;;10.80;90.20;;;;;;5047246;28;20258;-77
2021/11/09 07:50:43;;;;;;;3.50;3.20;;;10.90;90.20;;;;;;5045011;28;20196;-76
2021/11/09 07:53:13;;;;;;;2.65;2.45;;;11.00;90.10;;;;;;5045209;28;20175;-76
2021/11/09 07:55:43;;;;;;;2.75;2.65;;;11.00;89.80;;;;;;5044296;28;20278;-76
2021/11/09 07:58:13;;;;;;;3.88;3.00;;;11.00;89.60;;;;;;5046375;28;20219;-77
2021/11/09 08:00:41;;;;;;;3.30;3.00;;;11.00;89.50;;;;;;5046137;28;20188;-77
2021/11/09 08:08:56;;;;;;;3.78;2.55;;;11.00;89.30;;;;;;4984076;28;20352;-77
2021/11/09 08:11:11;;;;;;;3.15;2.80;;;10.90;89.20;;;;;;4984225;28;20336;-78
2021/11/09 08:13:37;;;;;;;4.50;3.15;;;10.90;89.40;;;;;;4984741;28;20601;-74
2021/11/09 08:16:03;;;;;;;3.63;3.42;;;10.80;89.30;;;;;;4983583;28;20189;-79
2021/11/09 08:18:28;;;;;;;2.90;2.70;;;10.80;89.60;;;;;;4983821;28;20228;-79
2021/11/09 08:20:54;;;;;;;3.38;3.08;;;10.80;89.60;;;;;;4983234;28;20185;-80
2021/11/09 08:23:20;;;;;;;10.15;3.00;;;10.80;89.70;;;;;;4984574;28;20185;-78
2021/11/09 08:25:46;;;;;;;3.53;3.22;;;10.80;89.80;;;;;;4983430;28;20635;-79
2021/11/09 08:28:11;;;;;;;3.60;3.30;;;10.80;89.60;;;;;;4984663;28;20228;-79
2021/11/09 08:30:38;;;;;;;3.55;2.70;;;10.90;89.40;;;;;;4983353;28;20221;-78
2021/11/09 08:33:04;;;;;;;3.90;3.40;;;10.90;89.30;;;;;;4982062;28;20185;-78
2021/11/09 08:35:31;;;;;;;3.67;3.15;;;10.90;89.10;;;;;;4983037;28;20197;-78
2021/11/09 08:37:56;;;;;;;4.60;3.53;;;10.80;89.30;;;;;;4983272;28;20720;-78
2021/11/09 08:40:23;;;;;;;3.20;2.95;;;10.70;89.50;;;;;;4983818;28;20186;-78
2021/11/09 08:42:55;;;;;;;3.95;3.55;;;10.70;89.80;;;;;;4983462;28;20185;-77
2021/11/09 08:45:37;;;;;;;4.35;3.95;;;10.60;90.00;;;;;;5010794;28;20881;-78
2021/11/09 08:48:13;;;;;;;4.97;4.32;;;10.60;90.10;;;;;;5046401;28;20188;-78
2021/11/09 08:50:39;;;;;;;4.47;3.22;;;10.60;89.90;;;;;;5044049;28;20198;-78
2021/11/09 08:53:14;;;;;;;3.77;3.30;;;10.70;90.00;;;;;;5046774;28;20176;-79
2021/11/09 08:55:56;;;;;;;6.97;3.05;;;10.70;89.80;;;;;;5044345;28;20214;-74
2021/11/09 08:58:37;;;;;;;5.18;2.88;;;10.70;89.90;;;;;;5044396;28;20235;-78
2021/11/09 09:06:13;;;;;;;4.70;2.80;;;10.80;89.30;;;;;;5044124;28;20676;-77
2021/11/09 09:08:39;;;;;;;4.25;3.67;;;10.80;88.90;;;;;;5044872;28;20179;-78
2021/11/09 09:11:04;;;;;;;5.97;3.05;;;10.70;88.70;;;;;;5045118;28;20186;-77
2021/11/09 09:13:30;;;;;;;3.28;2.88;;;10.60;88.80;;;;;;5045403;28;20960;-78
2021/11/09 09:15:56;;;;;;;2.72;2.53;;;10.50;89.00;;;;;;5044944;28;20265;-77
2021/11/09 09:18:22;;;;;;;3.10;2.83;;;10.50;89.00;;;;;;5046057;28;20214;-78
2021/11/09 09:23:43;;;;;;;8.20;5.38;;;10.50;89.00;;;;;;5023088;28;20219;-76
2021/11/09 09:26:47;;;;;;;7.53;4.80;;;10.50;89.00;;;;;;5022099;28;20216;-76
2021/11/09 09:29:29;;;;;;;4.57;3.65;;;10.50;88.50;;;;;;5019773;28;20199;-77
2021/11/09 09:56:31;;;;;;;4.47;3.50;;;10.10;88.90;;;;;;4974044;28;20233;-74
2021/11/09 09:58:58;;;;;;;3.73;3.03;;;10.00;89.20;;;;;;4968271;28;20217;-77
2021/11/09 10:01:24;;;;;;;3.57;2.90;;;10.00;89.40;;;;;;4989452;28;20189;-77
2021/11/09 10:03:50;;;;;;;7.37;3.83;;;10.00;89.40;;;;;;4996748;28;20177;-78
2021/11/09 10:06:15;;;;;;;3.67;3.30;;;9.90;89.50;;;;;;4994427;28;20267;-74
2021/11/09 10:08:48;;;;;;;3.43;3.13;;;10.00;89.40;;;;;;4998698;28;20606;-75
2021/11/09 10:11:34;;;;;;;3.37;3.17;;;9.90;89.30;;;;;;4995453;28;21070;-75
2021/11/09 10:14:05;;;;;;;4.10;2.97;;;9.90;89.40;;;;;;4990435;28;20265;-74
2021/11/09 10:16:34;;;;;;;2.33;2.10;;;9.70;89.60;;;;;;4995372;28;20332;-75
2021/11/09 10:19:01;;;;;;;2.37;2.23;;;9.70;90.00;;;;;;4978503;28;20246;-80
2021/11/09 10:21:40;;;;;;;2.87;2.60;;;9.60;90.20;;;;;;4993931;28;20251;-81
2021/11/09 10:24:26;;;;;;;2.63;2.50;;;9.50;90.50;;;;;;5009382;28;20203;-80
2021/11/09 10:26:54;;;;;;;2.77;2.57;;;9.60;90.80;;;;;;5044650;28;20188;-79
2021/11/09 10:29:40;;;;;;;3.03;2.83;;;9.50;90.90;;;;;;5045360;28;20191;-79
2021/11/09 10:32:18;;;;;;;4.00;2.80;;;9.50;91.10;;;;;;5051066;28;20261;-79
2021/11/09 10:34:45;;;;;;;3.97;2.93;;;9.50;91.40;;;;;;5048351;28;20196;-74
2021/11/09 10:37:24;;;;;;;3.03;2.83;;;9.50;91.60;;;;;;5048675;28;20219;-77
2021/11/09 10:39:52;;;;;;;5.03;3.27;;;9.50;92.10;;;;;;5046335;28;20223;-75
2021/11/09 10:42:23;;;;;;;3.40;3.10;;;9.50;92.50;;;;;;5048867;28;20231;-79
2021/11/09 10:44:59;;;;;;;2.77;2.57;;;9.50;93.20;;;;;;5049559;28;20207;-77
2021/11/09 10:47:30;;;;;;;3.00;2.80;;;9.50;93.80;;;;;;5049875;28;20198;-78
2021/11/09 10:50:00;;;;;;;3.60;2.90;;;9.50;93.60;;;;;;5050562;28;20206;-79
2021/11/09 10:52:31;;;;;;;3.43;2.93;;;9.40;94.20;;;;;;5047370;28;20191;-79
2021/11/09 10:55:17;;;;;;;4.40;3.10;;;9.40;94.60;;;;;;5045771;28;20194;-79
2021/11/09 10:58:16;;;;;;;4.87;2.97;;;9.30;95.20;;;;;;5045777;28;20251;-78
2021/11/09 11:04:00;;;;;;;2.77;2.43;;;9.10;95.60;;;;;;5046508;28;20795;-81
2021/11/09 11:06:27;;;;;;;3.13;2.83;;;9.00;95.60;;;;;;5043882;28;20191;-79
2021/11/09 11:09:11;;;;;;;3.73;2.60;;;8.90;96.10;;;;;;5046979;28;20194;-80
2021/11/09 11:11:44;;;;;;;3.57;3.27;;;8.90;96.90;;;;;;5046810;28;21028;-81
2021/11/09 11:14:22;;;;;;;4.97;3.23;;;8.90;97.50;;;;;;5049543;28;20384;-81
2021/11/09 11:16:48;;;;;;;4.40;3.20;;;8.90;97.90;;;;;;5047195;28;20188;-79
2021/11/09 11:19:17;;;;;;;3.40;2.83;;;8.90;98.10;;;;;;5045835;28;20215;-80
2021/11/09 11:21:44;;;;;;;3.40;3.07;;;8.90;98.00;;;;;;5045780;28;20188;-80
2021/11/09 11:24:12;;;;;;;3.17;2.97;;;9.00;98.10;;;;;;5048083;28;20194;-79
2021/11/09 11:26:41;;;;;;;3.77;1.63;;;9.00;98.00;;;;;;5046183;28;20184;-80
2021/11/09 11:29:07;;;;;;;2.20;2.00;;;9.10;97.50;;;;;;5045320;28;20183;-80
2021/11/09 11:31:33;;;;;;;2.40;2.30;;;9.10;96.40;;;;;;5048535;28;20250;-79
2021/11/09 11:34:00;;;;;;;2.83;2.30;;;9.30;96.50;;;;;;5044376;28;20179;-79
2021/11/09 11:36:26;;;;;;;2.70;2.23;;;9.40;95.70;;;;;;5045148;28;20188;-78
2021/11/09 11:38:55;;;;;;;2.00;1.90;;;9.40;95.00;;;;;;5046710;28;20570;-77
2021/11/09 11:41:27;;;;;;;1.97;1.87;;;9.40;94.60;;;;;;5044953;28;20282;-78
2021/11/09 11:43:56;;;;;;;2.47;2.20;;;9.40;94.40;;;;;;5077852;28;20186;-77
2021/11/09 11:46:34;;;;;;;2.33;2.10;;;9.30;94.80;;;;;;5045822;28;20215;-79
2021/11/09 11:49:01;;;;;;;2.70;2.50;;;9.20;94.60;;;;;;5047636;28;20186;-77
2021/11/09 11:51:29;;;;;;;1.80;1.80;;;9.10;94.90;;;;;;5048197;28;20175;-78
2021/11/09 11:53:55;;;;;;;3.03;2.47;;;9.00;94.40;;;;;;5046580;28;20266;-78
2021/11/09 11:56:41;;;;;;;1.43;1.43;;;9.00;94.70;;;;;;5046035;28;20263;-80
2021/11/09 11:59:22;;;;;;;0.60;0.60;;;9.00;94.80;;;;;;5044300;28;20253;-74
2021/11/09 12:02:04;;;;;;;1.23;1.23;;;8.80;94.40;;;;;;5045790;28;20182;-74
2021/11/09 12:04:36;;;;;;;0.73;0.73;;;8.70;95.40;;;;;;5044605;28;20186;-76
2021/11/09 12:07:14;;;;;;;0.60;0.60;;;8.60;95.30;;;;;;5045322;28;20188;-74
2021/11/09 12:09:45;;;;;;;1.50;0.60;;;8.50;95.70;;;;;;5045311;28;20194;-75
2021/11/09 12:12:17;;;;;;;0.50;0.50;;;8.40;96.30;;;;;;5041420;28;20211;-76
2021/11/09 12:14:56;;;;;;;0.60;0.60;;;8.40;96.40;;;;;;5043909;28;20179;-74
2021/11/09 12:17:38;;;;;;;0.73;0.73;;;8.40;96.70;;;;;;5042580;28;20175;-75
2021/11/09 12:20:09;;;;;;;0.50;0.50;;;8.30;97.30;;;;;;5038807;28;20235;-75
2021/11/09 12:22:51;;;;;;;0.53;0.50;;;8.30;97.40;;;;;;5042707;28;20175;-76
2021/11/09 12:25:37;;;;;;;0.50;0.50;;;8.30;97.50;;;;;;5040704;28;20233;-74
2021/11/09 12:28:05;;;;;;;0.60;0.60;;;8.30;97.70;;;;;;5038957;28;20766;-75
2021/11/09 12:30:34;;;;;;;0.53;0.53;;;8.20;97.90;;;;;;5041405;28;20254;-74
2021/11/09 12:33:11;;;;;;;0.43;0.43;;;8.20;98.20;;;;;;5040143;28;20275;-71
2021/11/09 12:35:38;;;;;;;1.60;0.73;;;8.20;98.10;;;;;;5044820;28;20198;-75
2021/11/09 12:38:12;;;;;;;0.73;0.73;;;8.10;98.50;;;;;;5043940;28;20623;-75
2021/11/09 12:40:50;;;;;;;0.40;0.40;;;8.10;98.50;;;;;;5043039;28;20270;-75
2021/11/09 12:43:31;;;;;;;0.40;0.40;;;8.10;98.00;;;;;;5042025;28;20278;-75
2021/11/09 12:46:04;;;;;;;1.03;0.60;;;8.10;98.20;;;;;;5043663;28;20855;-75
2021/11/09 12:48:55;;;;;;;0.40;0.40;;;8.10;98.30;;;;;;5041232;28;20180;-74
2021/11/09 12:51:30;;;;;;;0.20;0.20;;;8.10;98.50;;;;;;5041965;28;20192;-74
2021/11/09 12:54:04;;;;;;;0.77;0.40;;;8.00;98.10;;;;;;5042302;28;20213;-74
2021/11/09 12:56:41;;;;;;;0.83;0.40;;;8.00;98.00;;;;;;5045528;28;20688;-74
2021/11/09 12:59:20;;;;;;;0.40;0.40;;;8.00;97.50;;;;;;5042763;28;20277;-74
2021/11/09 13:07:11;;;;;;;1.80;0.40;;;8.10;96.90;;;;;;5042339;28;20338;-74
2021/11/09 13:09:50;;;;;;;0.30;0.30;;;8.10;96.50;;;;;;5041551;28;20191;-74
2021/11/09 13:12:23;;;;;;;0.83;0.37;;;8.10;96.20;;;;;;5041397;28;20185;-74
2021/11/09 13:14:55;;;;;;;0.30;0.30;;;8.10;95.90;;;;;;5042997;28;20187;-74
2021/11/09 13:17:34;;;;;;;0.30;0.30;;;8.00;95.70;;;;;;5042683;28;20191;-75
2021/11/09 13:20:08;;;;;;;0.37;0.37;;;8.00;95.70;;;;;;5040572;28;20293;-75
2021/11/09 13:22:34;;;;;;;0.27;0.27;;;8.00;96.50;;;;;;5042545;28;20240;-75
2021/11/09 13:25:07;;;;;;;0.30;0.30;;;8.00;96.40;;;;;;5043618;28;20199;-75
2021/11/09 13:27:40;;;;;;;0.30;0.30;;;8.00;96.40;;;;;;5044407;28;20198;-74
2021/11/09 13:30:10;;;;;;;0.23;0.23;;;8.00;96.60;;;;;;5044142;28;20176;-76
2021/11/09 13:32:35;;;;;;;0.30;0.30;;;8.00;96.80;;;;;;5042648;28;20610;-75
2021/11/09 13:35:01;;;;;;;0.50;0.33;;;8.10;96.50;;;;;;5046369;28;20191;-74
2021/11/09 13:37:34;;;;;;;0.57;0.33;;;8.10;96.40;;;;;;5045313;28;20222;-74
2021/11/09 13:40:01;;;;;;;0.70;0.70;;;8.20;96.30;;;;;;5044931;28;20226;-76
2021/11/09 13:42:28;;;;;;;0.60;0.60;;;8.10;95.40;;;;;;5046450;28;20750;-74
2021/11/09 13:44:55;;;;;;;0.53;0.20;;;8.20;95.20;;;;;;5047094;28;20183;-75
2021/11/09 13:47:34;;;;;;;0.40;0.40;;;8.10;95.20;;;;;;5048426;28;20529;-75
2021/11/09 13:50:10;;;;;;;0.27;0.27;;;8.10;94.90;;;;;;5046244;28;20685;-75
2021/11/09 13:52:48;;;;;;;0.50;0.50;;;8.10;95.00;;;;;;5046199;28;20236;-73
2021/11/09 13:55:16;;;;;;;0.50;0.50;;;8.10;94.70;;;;;;5046937;28;20189;-75
2021/11/09 13:57:43;;;;;;;1.90;0.50;;;8.10;95.00;;;;;;5045874;28;20184;-74
2021/11/09 14:00:34;;;;;;;0.50;0.50;;;8.00;95.00;;;;;;5045721;28;20214;-74
2021/11/09 14:03:05;;;;;;;2.00;0.60;;;8.00;94.90;;;;;;5047004;28;20199;-75
2021/11/09 14:08:39;;;;;;;0.17;0.17;;;7.90;94.80;;;;;;5044802;28;20175;-75
2021/11/09 14:16:29;;;;;;;0.63;0.63;;;8.00;95.20;;;;;;5045775;28;20190;-75
2021/11/09 14:18:57;;;;;;;0.30;0.30;;;8.00;95.00;;;;;;5044324;28;20273;-75
2021/11/09 14:21:32;;;;;;;0.40;0.40;;;8.00;95.00;;;;;;5048518;28;20203;-74
2021/11/09 14:24:12;;;;;;;0.30;0.30;;;8.00;94.70;;;;;;5048629;28;20211;-74
2021/11/09 14:26:39;;;;;;;0.67;0.43;;;8.00;94.50;;;;;;5046591;28;20188;-73
2021/11/09 14:29:23;;;;;;;0.33;0.33;;;8.00;94.60;;;;;;5046538;28;20267;-74
2021/11/09 14:32:05;;;;;;;1.80;0.30;;;8.10;94.30;;;;;;5043698;28;20685;-71
2021/11/09 14:34:32;;;;;;;0.53;0.53;;;8.10;94.20;;;;;;5042683;28;20249;-70
2021/11/09 14:37:17;;;;;;;0.57;0.57;;;8.10;94.10;;;;;;5043912;28;20175;-70
2021/11/09 14:39:57;;;;;;;0.63;0.63;;;8.00;94.00;;;;;;5042932;28;20308;-72
2021/11/09 14:42:38;;;;;;;0.30;0.30;;;8.00;94.10;;;;;;5045251;28;20180;-72
2021/11/09 14:45:22;;;;;;;1.00;0.70;;;8.00;94.40;;;;;;5045178;28;20655;-73
2021/11/09 14:47:56;;;;;;;0.90;0.90;;;8.00;94.40;;;;;;5046702;28;20175;-72
2021/11/09 14:53:14;;;;;;;1.07;1.00;;;8.00;94.20;;;;;;5047350;28;20582;-71
2021/11/09 14:55:48;;;;;;;1.10;1.10;;;8.00;94.20;;;;;;5043168;28;20196;-71
2021/11/09 14:58:45;;;;;;;0.80;0.80;;;8.00;94.50;;;;;;5060734;28;20217;-71
2021/11/09 15:01:43;;;;;;;1.00;0.67;;;8.10;94.30;;;;;;5044616;28;20192;-72
2021/11/09 15:04:35;;;;;;;0.70;0.70;;;8.00;94.50;;;;;;5043862;28;20184;-71
2021/11/09 15:33:29;;;;;;;1.67;1.47;;;8.00;94.90;;;;;;5002131;28;20201;-73
2021/11/09 15:36:12;;;;;;;1.10;1.10;;;8.00;94.90;;;;;;5002790;28;20208;-74
2021/11/09 15:38:38;;;;;;;1.13;1.13;;;8.00;94.80;;;;;;4987645;28;20944;-72
2021/11/09 15:41:04;;;;;;;1.33;0.83;;;8.10;94.60;;;;;;5004002;28;20227;-74
2021/11/09 15:43:32;;;;;;;0.93;0.93;;;8.10;94.40;;;;;;5004992;28;21042;-73
2021/11/09 15:46:02;;;;;;;1.30;1.20;;;8.20;94.30;;;;;;4986982;28;20638;-73
2021/11/09 15:48:29;;;;;;;1.43;1.33;;;8.20;94.30;;;;;;5002585;28;20193;-77
2021/11/09 15:50:55;;;;;;;6.30;1.60;;;8.30;94.10;;;;;;5007589;28;20748;-75
2021/11/09 15:53:21;;;;;;;1.10;1.10;;;8.30;94.00;;;;;;5000653;28;20248;-75
2021/11/09 15:55:47;;;;;;;1.87;1.77;;;8.30;94.00;;;;;;5005819;28;20193;-79
2021/11/09 15:58:13;;;;;;;1.70;1.63;;;8.20;94.10;;;;;;5003939;28;20231;-79
2021/11/09 16:00:39;;;;;;;6.73;1.87;;;8.30;94.00;;;;;;5002610;28;20217;-78
2021/11/09 16:03:08;;;;;;;1.03;1.03;;;8.30;94.00;;;;;;5005320;28;20197;-77
2021/11/09 16:05:35;;;;;;;1.90;1.53;;;8.30;94.10;;;;;;4986370;28;20181;-79